sensor_id;sensor_type;location;lat;lon;timestamp;pressure;altitude;pressure_sealevel;temperature;humidity
34297;BME280;20564;42.902;25.336;2023-02-03T00:01:34;97372.41;;;0.37;100.00
34297;BME280;20564;42.902;25.336;2023-02-03T00:04:01;97379.13;;;0.41;100.00
34297;BME280;20564;42.902;25.336;2023-02-03T00:06:30;97379.13;;;0.41;100.00
34297;BME280;20564;42.902;25.336;2023-02-03T00:08:58;97381.38;;;0.47;100.00
34297;BME280;20564;42.902;25.336;2023-02-03T00:11:30;97388.28;;;0.48;100.00
34297;BME280;20564;42.902;25.336;2023-02-03T00:13:57;97376.91;;;0.51;100.00
34297;BME280;20564;42.902;25.336;2023-02-03T00:16:23;97379.44;;;0.52;100.00
34297;BME280;20564;42.902;25.336;2023-02-03T00:18:50;97384.66;;;0.51;100.00
34297;BME280;20564;42.902;25.336;2023-02-03T00:21:17;97382.91;;;0.51;100.00
34297;BME280;20564;42.902;25.336;2023-02-03T00:23:44;97393.13;;;0.54;100.00
34297;BME280;20564;42.902;25.336;2023-02-03T00:26:13;97379.28;;;0.55;100.00
34297;BME280;20564;42.902;25.336;2023-02-03T00:28:40;97396.50;;;0.56;100.00
34297;BME280;20564;42.902;25.336;2023-02-03T00:31:22;97396.66;;;0.53;100.00
34297;BME280;20564;42.902;25.336;2023-02-03T00:33:56;97392.31;;;0.54;100.00
34297;BME280;20564;42.902;25.336;2023-02-03T00:36:24;97396.28;;;0.61;100.00
34297;BME280;20564;42.902;25.336;2023-02-03T00:38:50;97388.44;;;0.62;100.00
34297;BME280;20564;42.902;25.336;2023-02-03T00:41:18;97382.78;;;0.54;100.00
34297;BME280;20564;42.902;25.336;2023-02-03T00:43:46;97377.44;;;0.57;100.00
34297;BME280;20564;42.902;25.336;2023-02-03T00:46:13;97378.97;;;0.61;100.00
34297;BME280;20564;42.902;25.336;2023-02-03T00:48:40;97384.69;;;0.68;100.00
34297;BME280;20564;42.902;25.336;2023-02-03T00:51:07;97381.28;;;0.67;100.00
34297;BME280;20564;42.902;25.336;2023-02-03T00:53:34;97372.91;;;0.62;100.00
34297;BME280;20564;42.902;25.336;2023-02-03T00:56:01;97387.06;;;0.72;100.00
34297;BME280;20564;42.902;25.336;2023-02-03T00:58:27;97392.09;;;0.76;100.00
34297;BME280;20564;42.902;25.336;2023-02-03T01:00:55;97390.28;;;0.78;100.00
34297;BME280;20564;42.902;25.336;2023-02-03T01:03:22;97406.44;;;0.83;100.00
34297;BME280;20564;42.902;25.336;2023-02-03T01:05:49;97408.19;;;0.82;100.00
34297;BME280;20564;42.902;25.336;2023-02-03T01:08:16;97397.97;;;0.79;100.00
34297;BME280;20564;42.902;25.336;2023-02-03T01:10:43;97389.38;;;0.79;100.00
34297;BME280;20564;42.902;25.336;2023-02-03T01:13:10;97397.97;;;0.79;100.00
34297;BME280;20564;42.902;25.336;2023-02-03T01:15:36;97395.16;;;0.84;100.00
34297;BME280;20564;42.902;25.336;2023-02-03T01:18:03;97400.88;;;0.90;100.00
34297;BME280;20564;42.902;25.336;2023-02-03T01:20:30;97401.41;;;0.97;100.00
34297;BME280;20564;42.902;25.336;2023-02-03T01:22:57;97408.13;;;1.01;100.00
34297;BME280;20564;42.902;25.336;2023-02-03T01:25:23;97396.78;;;1.04;100.00
34297;BME280;20564;42.902;25.336;2023-02-03T01:27:50;97397.47;;;1.07;100.00
34297;BME280;20564;42.902;25.336;2023-02-03T01:30:17;97406.91;;;1.08;100.00
34297;BME280;20564;42.902;25.336;2023-02-03T01:32:44;97417.03;;;1.13;100.00
34297;BME280;20564;42.902;25.336;2023-02-03T01:35:11;97421.94;;;1.19;100.00
34297;BME280;20564;42.902;25.336;2023-02-03T01:37:37;97414.22;;;1.17;100.00
34297;BME280;20564;42.902;25.336;2023-02-03T01:40:05;97417.56;;;1.19;100.00
34297;BME280;20564;42.902;25.336;2023-02-03T01:42:32;97401.19;;;1.19;100.00
34297;BME280;20564;42.902;25.336;2023-02-03T01:44:59;97413.84;;;1.25;100.00
34297;BME280;20564;42.902;25.336;2023-02-03T01:47:39;97400.50;;;1.15;100.00
34297;BME280;20564;42.902;25.336;2023-02-03T01:50:13;97398.88;;;1.13;100.00
34297;BME280;20564;42.902;25.336;2023-02-03T01:52:43;97395.16;;;1.18;100.00
34297;BME280;20564;42.902;25.336;2023-02-03T01:55:13;97398.34;;;1.24;100.00
34297;BME280;20564;42.902;25.336;2023-02-03T01:57:56;97392.19;;;1.26;100.00
34297;BME280;20564;42.902;25.336;2023-02-03T02:00:25;97399.03;;;1.27;100.00
34297;BME280;20564;42.902;25.336;2023-02-03T02:02:53;97396.69;;;1.23;100.00
34297;BME280;20564;42.902;25.336;2023-02-03T02:08:00;97399.38;;;1.21;100.00
34297;BME280;20564;42.902;25.336;2023-02-03T02:10:29;97396.84;;;1.19;100.00
34297;BME280;20564;42.902;25.336;2023-02-03T02:12:56;97400.72;;;1.28;100.00
34297;BME280;20564;42.902;25.336;2023-02-03T02:15:33;97389.69;;;1.25;100.00
34297;BME280;20564;42.902;25.336;2023-02-03T02:32:04;97402.41;;;1.29;100.00
34297;BME280;20564;42.902;25.336;2023-02-03T02:43:14;97396.22;;;1.32;100.00
34297;BME280;20564;42.902;25.336;2023-02-03T02:45:49;97400.56;;;1.31;100.00
34297;BME280;20564;42.902;25.336;2023-02-03T02:50:51;97400.06;;;1.25;100.00
34297;BME280;20564;42.902;25.336;2023-02-03T02:53:22;97400.19;;;1.22;100.00
34297;BME280;20564;42.902;25.336;2023-02-03T02:55:52;97402.69;;;1.23;100.00
34297;BME280;20564;42.902;25.336;2023-02-03T02:58:20;97406.91;;;1.26;100.00
34297;BME280;20564;42.902;25.336;2023-02-03T03:00:47;97401.88;;;1.23;99.98
34297;BME280;20564;42.902;25.336;2023-02-03T03:03:22;97393.41;;;1.19;100.00
34297;BME280;20564;42.902;25.336;2023-02-03T03:05:54;97389.16;;;1.18;99.80
34297;BME280;20564;42.902;25.336;2023-02-03T03:08:27;97396.97;;;1.16;99.47
34297;BME280;20564;42.902;25.336;2023-02-03T03:10:57;97398.84;;;1.14;100.00
34297;BME280;20564;42.902;25.336;2023-02-03T03:13:31;97401.41;;;1.14;99.72
34297;BME280;20564;42.902;25.336;2023-02-03T03:16:01;97406.47;;;1.17;100.00
34297;BME280;20564;42.902;25.336;2023-02-03T03:18:36;97401.28;;;1.17;100.00
34297;BME280;20564;42.902;25.336;2023-02-03T03:21:05;97409.94;;;1.16;100.00
34297;BME280;20564;42.902;25.336;2023-02-03T03:23:38;97409.94;;;1.16;100.00
34297;BME280;20564;42.902;25.336;2023-02-03T03:26:10;97416.75;;;1.19;99.82
34297;BME280;20564;42.902;25.336;2023-02-03T03:28:47;97412.25;;;1.23;100.00
34297;BME280;20564;42.902;25.336;2023-02-03T03:31:18;97420.00;;;1.23;100.00
34297;BME280;20564;42.902;25.336;2023-02-03T03:33:46;97421.00;;;1.20;100.00
34297;BME280;20564;42.902;25.336;2023-02-03T03:38:53;97425.34;;;1.19;100.00
34297;BME280;20564;42.902;25.336;2023-02-03T03:41:25;97425.97;;;1.25;100.00
34297;BME280;20564;42.902;25.336;2023-02-03T03:43:56;97426.97;;;1.22;100.00
34297;BME280;20564;42.902;25.336;2023-02-03T03:46:28;97424.50;;;1.19;100.00
34297;BME280;20564;42.902;25.336;2023-02-03T03:49:04;97425.34;;;1.19;100.00
34297;BME280;20564;42.902;25.336;2023-02-03T03:51:39;97423.09;;;1.13;100.00
34297;BME280;20564;42.902;25.336;2023-02-03T03:54:09;97422.59;;;1.23;100.00
34297;BME280;20564;42.902;25.336;2023-02-03T03:57:13;97445.09;;;1.22;100.00
34297;BME280;20564;42.902;25.336;2023-02-03T03:59:45;97452.06;;;1.22;100.00
34297;BME280;20564;42.902;25.336;2023-02-03T04:02:13;97457.38;;;1.18;100.00
34297;BME280;20564;42.902;25.336;2023-02-03T04:04:42;97469.44;;;1.19;100.00
34297;BME280;20564;42.902;25.336;2023-02-03T04:07:12;97462.72;;;1.15;100.00
34297;BME280;20564;42.902;25.336;2023-02-03T04:09:39;97481.31;;;1.24;100.00
34297;BME280;20564;42.902;25.336;2023-02-03T04:12:21;97493.91;;;1.31;100.00
34297;BME280;20564;42.902;25.336;2023-02-03T04:14:49;97481.72;;;1.33;100.00
34297;BME280;20564;42.902;25.336;2023-02-03T04:17:15;97489.78;;;1.27;100.00
34297;BME280;20564;42.902;25.336;2023-02-03T04:19:46;97510.16;;;1.35;100.00
34297;BME280;20564;42.902;25.336;2023-02-03T04:22:13;97513.53;;;1.37;100.00
34297;BME280;20564;42.902;25.336;2023-02-03T04:24:40;97513.53;;;1.37;100.00
34297;BME280;20564;42.902;25.336;2023-02-03T04:27:07;97519.25;;;1.43;100.00
34297;BME280;20564;42.902;25.336;2023-02-03T04:29:33;97522.13;;;1.37;100.00
34297;BME280;20564;42.902;25.336;2023-02-03T04:32:00;97524.28;;;1.47;100.00
34297;BME280;20564;42.902;25.336;2023-02-03T04:34:27;97517.41;;;1.45;100.00
34297;BME280;20564;42.902;25.336;2023-02-03T04:36:54;97525.88;;;1.49;100.00
34297;BME280;20564;42.902;25.336;2023-02-03T04:39:20;97525.13;;;1.47;100.00
34297;BME280;20564;42.902;25.336;2023-02-03T04:41:48;97518.25;;;1.46;100.00
34297;BME280;20564;42.902;25.336;2023-02-03T04:44:15;97524.28;;;1.47;100.00
34297;BME280;20564;42.902;25.336;2023-02-03T04:46:41;97516.84;;;1.39;100.00
34297;BME280;20564;42.902;25.336;2023-02-03T04:49:08;97518.41;;;1.43;100.00
34297;BME280;20564;42.902;25.336;2023-02-03T04:51:37;97520.78;;;1.48;100.00
34297;BME280;20564;42.902;25.336;2023-02-03T04:54:04;97511.53;;;1.42;100.00
34297;BME280;20564;42.902;25.336;2023-02-03T04:56:31;97529.53;;;1.45;100.00
34297;BME280;20564;42.902;25.336;2023-02-03T04:58:58;97539.91;;;1.45;100.00
34297;BME280;20564;42.902;25.336;2023-02-03T05:01:24;97543.88;;;1.52;100.00
34297;BME280;20564;42.902;25.336;2023-02-03T05:03:51;97532.59;;;1.36;100.00
34297;BME280;20564;42.902;25.336;2023-02-03T05:06:26;97534.97;;;1.40;100.00
34297;BME280;20564;42.902;25.336;2023-02-03T05:08:54;97546.44;;;1.35;100.00
34297;BME280;20564;42.902;25.336;2023-02-03T05:11:21;97539.44;;;1.37;100.00
34297;BME280;20564;42.902;25.336;2023-02-03T05:13:48;97541.28;;;1.35;100.00
34297;BME280;20564;42.902;25.336;2023-02-03T05:16:15;97536.25;;;1.32;100.00
34297;BME280;20564;42.902;25.336;2023-02-03T05:18:42;97544.94;;;1.31;100.00
34297;BME280;20564;42.902;25.336;2023-02-03T05:21:09;97557.00;;;1.32;100.00
34297;BME280;20564;42.902;25.336;2023-02-03T05:23:36;97558.66;;;1.33;100.00
34297;BME280;20564;42.902;25.336;2023-02-03T05:26:03;97557.84;;;1.32;100.00
34297;BME280;20564;42.902;25.336;2023-02-03T05:28:30;97562.00;;;1.35;100.00
34297;BME280;20564;42.902;25.336;2023-02-03T05:30:58;97557.59;;;1.37;100.00
34297;BME280;20564;42.902;25.336;2023-02-03T05:33:25;97566.06;;;1.40;100.00
34297;BME280;20564;42.902;25.336;2023-02-03T05:35:52;97565.38;;;1.37;100.00
34297;BME280;20564;42.902;25.336;2023-02-03T05:38:18;97571.50;;;1.36;100.00
34297;BME280;20564;42.902;25.336;2023-02-03T05:40:48;97576.59;;;1.37;100.00
34297;BME280;20564;42.902;25.336;2023-02-03T05:43:34;97580.66;;;1.43;100.00
34297;BME280;20564;42.902;25.336;2023-02-03T05:46:03;97594.38;;;1.45;100.00
34297;BME280;20564;42.902;25.336;2023-02-03T05:48:30;97601.47;;;1.41;100.00
34297;BME280;20564;42.902;25.336;2023-02-03T05:50:57;97593.69;;;1.41;100.00
34297;BME280;20564;42.902;25.336;2023-02-03T05:53:25;97608.41;;;1.41;100.00
34297;BME280;20564;42.902;25.336;2023-02-03T05:55:52;97599.31;;;1.32;100.00
34297;BME280;20564;42.902;25.336;2023-02-03T05:58:19;97606.88;;;1.37;100.00
34297;BME280;20564;42.902;25.336;2023-02-03T06:00:46;97606.88;;;1.37;100.00
34297;BME280;20564;42.902;25.336;2023-02-03T06:03:13;97605.97;;;1.38;100.00
34297;BME280;20564;42.902;25.336;2023-02-03T06:05:41;97613.47;;;1.44;100.00
34297;BME280;20564;42.902;25.336;2023-02-03T06:08:10;97603.78;;;1.48;100.00
34297;BME280;20564;42.902;25.336;2023-02-03T06:10:36;97599.84;;;1.39;100.00
34297;BME280;20564;42.902;25.336;2023-02-03T06:13:11;97620.47;;;1.42;100.00
34297;BME280;20564;42.902;25.336;2023-02-03T06:15:39;97611.16;;;1.38;100.00
34297;BME280;20564;42.902;25.336;2023-02-03T06:18:06;97620.78;;;1.36;100.00
34297;BME280;20564;42.902;25.336;2023-02-03T06:20:33;97620.78;;;1.36;100.00
34297;BME280;20564;42.902;25.336;2023-02-03T06:23:00;97618.38;;;1.31;100.00
34297;BME280;20564;42.902;25.336;2023-02-03T06:25:27;97623.41;;;1.34;100.00
34297;BME280;20564;42.902;25.336;2023-02-03T06:27:54;97626.66;;;1.39;100.00
34297;BME280;20564;42.902;25.336;2023-02-03T06:30:21;97624.25;;;1.35;100.00
34297;BME280;20564;42.902;25.336;2023-02-03T06:32:49;97638.84;;;1.37;100.00
34297;BME280;20564;42.902;25.336;2023-02-03T06:35:17;97631.41;;;1.30;100.00
34297;BME280;20564;42.902;25.336;2023-02-03T06:37:44;97632.41;;;1.27;100.00
34297;BME280;20564;42.902;25.336;2023-02-03T06:40:11;97637.59;;;1.27;100.00
34297;BME280;20564;42.902;25.336;2023-02-03T06:42:38;97646.84;;;1.33;100.00
34297;BME280;20564;42.902;25.336;2023-02-03T06:45:05;97639.34;;;1.27;100.00
34297;BME280;20564;42.902;25.336;2023-02-03T06:47:33;97633.31;;;1.26;100.00
34297;BME280;20564;42.902;25.336;2023-02-03T06:50:01;97649.28;;;1.36;100.00
34297;BME280;20564;42.902;25.336;2023-02-03T06:52:28;97661.47;;;1.34;100.00
34297;BME280;20564;42.902;25.336;2023-02-03T06:54:55;97662.41;;;1.33;100.00
34297;BME280;20564;42.902;25.336;2023-02-03T06:57:21;97669.25;;;1.34;100.00
34297;BME280;20564;42.902;25.336;2023-02-03T06:59:49;97673.25;;;1.41;100.00
34297;BME280;20564;42.902;25.336;2023-02-03T07:02:15;97676.91;;;1.37;100.00
34297;BME280;20564;42.902;25.336;2023-02-03T07:04:42;97669.97;;;1.37;100.00
34297;BME280;20564;42.902;25.336;2023-02-03T07:07:11;97668.56;;;1.30;100.00
34297;BME280;20564;42.902;25.336;2023-02-03T07:09:38;97672.47;;;1.39;100.00
34297;BME280;20564;42.902;25.336;2023-02-03T07:12:06;97670.03;;;1.36;100.00
34297;BME280;20564;42.902;25.336;2023-02-03T07:14:34;97675.16;;;1.37;100.00
34297;BME280;20564;42.902;25.336;2023-02-03T07:17:02;97675.84;;;1.41;100.00
34297;BME280;20564;42.902;25.336;2023-02-03T07:19:28;97679.06;;;1.46;100.00
34297;BME280;20564;42.902;25.336;2023-02-03T07:21:55;97676.53;;;1.44;100.00
34297;BME280;20564;42.902;25.336;2023-02-03T07:24:22;97683.03;;;1.53;100.00
34297;BME280;20564;42.902;25.336;2023-02-03T07:26:49;97691.00;;;1.50;100.00
34297;BME280;20564;42.902;25.336;2023-02-03T07:29:15;97694.91;;;1.59;100.00
34297;BME280;20564;42.902;25.336;2023-02-03T07:31:42;97694.06;;;1.58;100.00
34297;BME280;20564;42.902;25.336;2023-02-03T07:34:09;97701.47;;;1.66;100.00
34297;BME280;20564;42.902;25.336;2023-02-03T07:36:36;97704.53;;;1.74;100.00
34297;BME280;20564;42.902;25.336;2023-02-03T07:39:02;97705.31;;;1.76;100.00
34297;BME280;20564;42.902;25.336;2023-02-03T07:41:29;97701.56;;;1.82;100.00
34297;BME280;20564;42.902;25.336;2023-02-03T07:43:56;97704.81;;;1.87;100.00
34297;BME280;20564;42.902;25.336;2023-02-03T07:46:22;97720.22;;;1.90;100.00
34297;BME280;20564;42.902;25.336;2023-02-03T07:48:50;97708.44;;;1.83;100.00
34297;BME280;20564;42.902;25.336;2023-02-03T07:51:16;97704.31;;;1.79;100.00
34297;BME280;20564;42.902;25.336;2023-02-03T07:53:44;97725.56;;;1.87;100.00
34297;BME280;20564;42.902;25.336;2023-02-03T07:56:10;97722.06;;;1.88;100.00
34297;BME280;20564;42.902;25.336;2023-02-03T07:58:37;97725.41;;;1.90;100.00
34297;BME280;20564;42.902;25.336;2023-02-03T08:01:13;97728.91;;;1.89;100.00
34297;BME280;20564;42.902;25.336;2023-02-03T08:03:41;97723.44;;;1.95;100.00
34297;BME280;20564;42.902;25.336;2023-02-03T08:06:08;97723.59;;;1.92;100.00
34297;BME280;20564;42.902;25.336;2023-02-03T08:08:35;97722.81;;;1.90;100.00
34297;BME280;20564;42.902;25.336;2023-02-03T08:11:02;97732.16;;;1.94;100.00
34297;BME280;20564;42.902;25.336;2023-02-03T08:13:29;97723.31;;;1.98;100.00
34297;BME280;20564;42.902;25.336;2023-02-03T08:15:55;97738.19;;;1.95;100.00
34297;BME280;20564;42.902;25.336;2023-02-03T08:18:22;97720.91;;;1.93;100.00
34297;BME280;20564;42.902;25.336;2023-02-03T08:20:49;97730.78;;;2.04;100.00
34297;BME280;20564;42.902;25.336;2023-02-03T08:23:16;97727.88;;;2.10;100.00
34297;BME280;20564;42.902;25.336;2023-02-03T08:25:42;97724.09;;;2.17;100.00
34297;BME280;20564;42.902;25.336;2023-02-03T08:28:09;97719.72;;;2.18;100.00
34297;BME280;20564;42.902;25.336;2023-02-03T08:30:36;97717.66;;;2.25;100.00
34297;BME280;20564;42.902;25.336;2023-02-03T08:33:03;97717.06;;;2.20;99.92
34297;BME280;20564;42.902;25.336;2023-02-03T08:35:30;97709.63;;;2.12;99.80
34297;BME280;20564;42.902;25.336;2023-02-03T08:37:57;97717.59;;;2.09;100.00
34297;BME280;20564;42.902;25.336;2023-02-03T08:40:24;97711.63;;;2.07;100.00
34297;BME280;20564;42.902;25.336;2023-02-03T08:42:51;97707.13;;;2.10;100.00
34297;BME280;20564;42.902;25.336;2023-02-03T08:45:18;97719.25;;;2.10;100.00
34297;BME280;20564;42.902;25.336;2023-02-03T08:47:45;97718.72;;;2.03;100.00
34297;BME280;20564;42.902;25.336;2023-02-03T08:50:12;97726.66;;;2.00;100.00
34297;BME280;20564;42.902;25.336;2023-02-03T08:52:39;97724.69;;;2.05;100.00
34297;BME280;20564;42.902;25.336;2023-02-03T08:55:06;97729.41;;;2.14;100.00
34297;BME280;20564;42.902;25.336;2023-02-03T08:57:34;97723.94;;;2.21;100.00
34297;BME280;20564;42.902;25.336;2023-02-03T09:00:02;97731.88;;;2.35;100.00
34297;BME280;20564;42.902;25.336;2023-02-03T09:02:29;97725.63;;;2.39;100.00
34297;BME280;20564;42.902;25.336;2023-02-03T09:04:56;97723.16;;;2.36;100.00
34297;BME280;20564;42.902;25.336;2023-02-03T09:07:23;97743.03;;;2.54;100.00
34297;BME280;20564;42.902;25.336;2023-02-03T09:09:50;97755.03;;;2.57;99.47
34297;BME280;20564;42.902;25.336;2023-02-03T09:12:17;97746.72;;;2.50;98.74
34297;BME280;20564;42.902;25.336;2023-02-03T09:14:44;97745.03;;;2.49;98.98
34297;BME280;20564;42.902;25.336;2023-02-03T09:17:11;97753.34;;;2.56;96.47
34297;BME280;20564;42.902;25.336;2023-02-03T09:19:37;97763.38;;;2.63;97.43
34297;BME280;20564;42.902;25.336;2023-02-03T09:22:04;97760.69;;;2.65;94.97
34297;BME280;20564;42.902;25.336;2023-02-03T09:24:31;97761.53;;;2.65;94.47
34297;BME280;20564;42.902;25.336;2023-02-03T09:26:58;97753.44;;;2.72;95.93
34297;BME280;20564;42.902;25.336;2023-02-03T09:29:27;97764.88;;;2.85;94.72
34297;BME280;20564;42.902;25.336;2023-02-03T09:31:54;97762.25;;;2.85;93.14
34297;BME280;20564;42.902;25.336;2023-02-03T09:34:20;97761.13;;;2.90;93.78
34297;BME280;20564;42.902;25.336;2023-02-03T09:36:47;97754.25;;;2.89;93.87
34297;BME280;20564;42.902;25.336;2023-02-03T09:39:14;97742.84;;;2.92;92.60
34297;BME280;20564;42.902;25.336;2023-02-03T09:44:30;97740.69;;;3.00;93.16
34297;BME280;20564;42.902;25.336;2023-02-03T09:47:09;97748.50;;;3.00;92.06
34297;BME280;20564;42.902;25.336;2023-02-03T09:49:41;97741.69;;;2.98;92.38
34297;BME280;20564;42.902;25.336;2023-02-03T09:52:17;97745.91;;;3.00;90.66
34297;BME280;20564;42.902;25.336;2023-02-03T09:55:03;97745.03;;;3.00;90.56
34297;BME280;20564;42.902;25.336;2023-02-03T09:57:44;97735.50;;;3.00;92.09
34297;BME280;20564;42.902;25.336;2023-02-03T10:00:25;97732.72;;;3.03;92.61
34297;BME280;20564;42.902;25.336;2023-02-03T10:03:29;97738.16;;;2.99;92.09
34297;BME280;20564;42.902;25.336;2023-02-03T10:17:38;97715.72;;;3.13;92.13
34297;BME280;20564;42.902;25.336;2023-02-03T10:21:01;97721.44;;;3.20;91.48
34297;BME280;20564;42.902;25.336;2023-02-03T10:23:35;97717.41;;;3.14;89.90
34297;BME280;20564;42.902;25.336;2023-02-03T10:26:08;97720.44;;;3.23;91.35
34297;BME280;20564;42.902;25.336;2023-02-03T10:28:44;97719.50;;;3.24;89.98
34297;BME280;20564;42.902;25.336;2023-02-03T10:31:17;97720.03;;;3.30;90.28
34297;BME280;20564;42.902;25.336;2023-02-03T10:33:46;97720.28;;;3.26;89.72
34297;BME280;20564;42.902;25.336;2023-02-03T10:36:16;97708.78;;;3.30;90.08
34297;BME280;20564;42.902;25.336;2023-02-03T10:41:19;97712.56;;;3.56;91.39
34297;BME280;20564;42.902;25.336;2023-02-03T10:43:48;97697.09;;;3.69;88.75
34297;BME280;20564;42.902;25.336;2023-02-03T10:48:53;97701.66;;;3.81;87.05
34297;BME280;20564;42.902;25.336;2023-02-03T10:51:28;97709.59;;;3.94;87.12
34297;BME280;20564;42.902;25.336;2023-02-03T10:53:59;97700.78;;;3.96;85.16
34297;BME280;20564;42.902;25.336;2023-02-03T10:56:30;97692.63;;;4.02;86.89
34297;BME280;20564;42.902;25.336;2023-02-03T10:58:59;97692.03;;;3.97;84.51
34297;BME280;20564;42.902;25.336;2023-02-03T11:01:46;97695.41;;;3.99;85.15
34297;BME280;20564;42.902;25.336;2023-02-03T11:04:31;97687.50;;;4.01;84.46
34297;BME280;20564;42.902;25.336;2023-02-03T11:07:04;97683.28;;;4.14;83.83
34297;BME280;20564;42.902;25.336;2023-02-03T11:09:36;97682.03;;;4.35;82.41
34297;BME280;20564;42.902;25.336;2023-02-03T11:14:39;97675.44;;;4.44;82.99
34297;BME280;20564;42.902;25.336;2023-02-03T11:17:07;97672.66;;;4.62;83.64
34297;BME280;20564;42.902;25.336;2023-02-03T11:19:36;97668.59;;;4.72;83.04
34297;BME280;20564;42.902;25.336;2023-02-03T11:22:05;97651.81;;;4.62;79.20
34297;BME280;20564;42.902;25.336;2023-02-03T11:24:36;97657.63;;;4.37;79.18
34297;BME280;20564;42.902;25.336;2023-02-03T11:27:09;97650.09;;;4.32;80.29
34297;BME280;20564;42.902;25.336;2023-02-03T11:29:46;97648.28;;;4.18;79.49
34297;BME280;20564;42.902;25.336;2023-02-03T11:35:26;97649.34;;;4.00;81.87
34297;BME280;20564;42.902;25.336;2023-02-03T11:37:59;97643.38;;;3.98;81.55
34297;BME280;20564;42.902;25.336;2023-02-03T11:40:31;97637.56;;;4.08;83.13
34297;BME280;20564;42.902;25.336;2023-02-03T11:43:09;97628.47;;;4.16;81.81
34297;BME280;20564;42.902;25.336;2023-02-03T11:45:42;97628.47;;;4.16;80.51
34297;BME280;20564;42.902;25.336;2023-02-03T12:13:35;97635.44;;;3.85;79.57
34297;BME280;20564;42.902;25.336;2023-02-03T12:21:27;97634.03;;;3.79;82.83
34297;BME280;20564;42.902;25.336;2023-02-03T12:24:20;97643.69;;;3.77;81.94
34297;BME280;20564;42.902;25.336;2023-02-03T12:27:18;97638.50;;;3.77;82.24
34297;BME280;20564;42.902;25.336;2023-02-03T12:30:12;97638.50;;;3.77;82.57
34297;BME280;20564;42.902;25.336;2023-02-03T12:32:42;97641.84;;;3.79;82.45
34297;BME280;20564;42.902;25.336;2023-02-03T12:35:21;97638.22;;;3.82;83.25
34297;BME280;20564;42.902;25.336;2023-02-03T12:41:12;97631.75;;;3.89;81.99
34297;BME280;20564;42.902;25.336;2023-02-03T12:43:50;97640.66;;;3.85;81.57
34297;BME280;20564;42.902;25.336;2023-02-03T12:46:39;97638.13;;;3.83;80.73
34297;BME280;20564;42.902;25.336;2023-02-03T12:49:21;97630.06;;;3.88;80.89
34297;BME280;20564;42.902;25.336;2023-02-03T12:52:02;97627.72;;;3.83;81.36
34297;BME280;20564;42.902;25.336;2023-02-03T12:54:46;97625.03;;;3.85;81.42
34297;BME280;20564;42.902;25.336;2023-02-03T12:57:26;97630.06;;;3.88;82.50
34297;BME280;20564;42.902;25.336;2023-02-03T13:00:08;97622.47;;;3.99;80.11
34297;BME280;20564;42.902;25.336;2023-02-03T13:02:47;97633.06;;;3.96;79.64
34297;BME280;20564;42.902;25.336;2023-02-03T13:07:55;97614.97;;;3.79;80.57
34297;BME280;20564;42.902;25.336;2023-02-03T13:10:37;97623.09;;;3.73;80.33
34297;BME280;20564;42.902;25.336;2023-02-03T13:13:12;97619.19;;;3.66;79.91
34297;BME280;20564;42.902;25.336;2023-02-03T13:15:45;97627.91;;;3.65;81.74
34297;BME280;20564;42.902;25.336;2023-02-03T13:18:27;97624.22;;;3.69;81.78
34297;BME280;20564;42.902;25.336;2023-02-03T13:20:55;97610.63;;;3.63;82.36
34297;BME280;20564;42.902;25.336;2023-02-03T13:23:23;97606.44;;;3.61;83.29
34297;BME280;20564;42.902;25.336;2023-02-03T13:28:46;97609.94;;;3.76;83.89
34297;BME280;20564;42.902;25.336;2023-02-03T13:34:25;97606.38;;;3.93;82.29
34297;BME280;20564;42.902;25.336;2023-02-03T13:37:21;97591.06;;;4.02;81.96
34297;BME280;20564;42.902;25.336;2023-02-03T13:40:16;97584.94;;;4.18;81.29
34297;BME280;20564;42.902;25.336;2023-02-03T13:42:53;97581.03;;;4.25;81.23
34297;BME280;20564;42.902;25.336;2023-02-03T13:45:37;97589.22;;;4.33;79.36
34297;BME280;20564;42.902;25.336;2023-02-03T13:48:12;97586.78;;;4.30;80.22
34297;BME280;20564;42.902;25.336;2023-02-03T13:50:40;97580.66;;;4.31;79.53
34297;BME280;20564;42.902;25.336;2023-02-03T13:56:00;97571.94;;;4.32;77.35
34297;BME280;20564;42.902;25.336;2023-02-03T13:58:37;97576.84;;;4.22;78.45
34297;BME280;20564;42.902;25.336;2023-02-03T14:09:21;97562.38;;;3.88;78.01
34297;BME280;20564;42.902;25.336;2023-02-03T14:11:50;97561.72;;;3.84;77.36
34297;BME280;20564;42.902;25.336;2023-02-03T14:16:51;97559.00;;;3.86;77.68
34297;BME280;20564;42.902;25.336;2023-02-03T14:21:53;97559.34;;;3.80;77.09
34297;BME280;20564;42.902;25.336;2023-02-03T14:24:21;97573.13;;;3.82;77.91
34297;BME280;20564;42.902;25.336;2023-02-03T14:26:50;97563.63;;;3.67;75.38
34297;BME280;20564;42.902;25.336;2023-02-03T14:29:28;97573.25;;;3.65;76.95
34297;BME280;20564;42.902;25.336;2023-02-03T14:32:04;97572.88;;;3.56;77.18
34297;BME280;20564;42.902;25.336;2023-02-03T14:37:38;97581.59;;;3.55;76.09
34297;BME280;20564;42.902;25.336;2023-02-03T14:54:23;97570.38;;;3.39;76.83
34297;BME280;20564;42.902;25.336;2023-02-03T15:03:24;97574.69;;;3.40;75.77
34297;BME280;20564;42.902;25.336;2023-02-03T15:05:56;97578.19;;;3.39;76.48
34297;BME280;20564;42.902;25.336;2023-02-03T15:08:51;97582.66;;;3.37;75.39
34297;BME280;20564;42.902;25.336;2023-02-03T15:11:25;97569.13;;;3.30;77.57
34297;BME280;20564;42.902;25.336;2023-02-03T15:13:54;97577.22;;;3.26;77.78
34297;BME280;20564;42.902;25.336;2023-02-03T15:16:23;97573.06;;;3.22;75.60
34297;BME280;20564;42.902;25.336;2023-02-03T15:18:59;97575.03;;;3.18;76.83
34297;BME280;20564;42.902;25.336;2023-02-03T15:21:40;97575.25;;;3.13;76.51
34297;BME280;20564;42.902;25.336;2023-02-03T15:24:15;97579.13;;;3.06;76.23
34297;BME280;20564;42.902;25.336;2023-02-03T15:26:52;97576.69;;;3.03;76.52
34297;BME280;20564;42.902;25.336;2023-02-03T15:29:32;97569.41;;;2.94;77.15